Vernon, TX (76385)

10:21 PM CST on December 27, 2014 (GMT -0600)
Vernon | Change Station
CLOSE
Current Station
Airport
Location: Vernon,
Elevation: 1266 ft
Nearby Weather Stations

Elev 1266 ft 34.23 °N, 99.28 °W | Updated 6 minutes ago

Partly Cloudy
Partly Cloudy
30 °F
Feels Like 23 °F
N
6
Wind Variable Wind from WSW

Today
High -- | Low -- °F
--% Chance of Precip.
Yesterday
High -- | Low -- °F
Precip. -- in
7:41 AM 5:34 PM
Waxing Crescent, 43% visible
Pressure 30.36 in
Visibility 10.0 miles
Clouds Scattered Clouds 10000 ft
Windchill 23 °F
Dew Point 21 °F
Humidity 71%
Rainfall 0.03 in
Snow Depth Not available.
UV 0 out of 12
Pollen 9.00 out of 12
Air Quality Not available.
Flu Activity Not available.
METAR KF05 280415Z AUTO 24005KT 10SM SCT100 M01/M06 A3036 RMK AO1 T10141060

More Conditions Fewer Conditions

Pressure 30.36 in
Visibility 10.0 miles
Clouds Scattered Clouds 10000 ft
Windchill 23 °F
Dew Point 21 °F
Humidity 71%
Rainfall 0.03 in
Snow Depth Not available.
UV 0 out of 12
Pollen 9.00 out of 12
Air Quality Not available.
Flu Activity Not available.
METAR KF05 280415Z AUTO 24005KT 10SM SCT100 M01/M06 A3036 RMK AO1 T10141060

More Conditions Fewer Conditions

10-Day Weather Forecast

Almanac

Astronomy

Dec. 27, 2014 Rise Set
Actual Time
Civil Twilight
Nautical Twilight
Astronomical Twilight
Moon
Length of Visible Light
Length of Day
Tomorrow will be .
, % of the Moon is Illuminated

Today's Extremes

State Highs State Lows

Community

WunderPhotos

Upload Photos

1,781,189 photos uploaded!

WunderBlogs® & News

Nearby

Air Quality

  Air Quality AQ Index Pollutant
Not available.

Snow Depth

Station Depth Elevation

Earthquake Activity

City Distance Mag. Time & Date
Minimum magnitude displayed is 2.5.

Coastal Water Temperatures

Place Temperature

Nearby Weather Stations